createdAt,value
2018-08-03T00:06:17.533Z,98590.50
2018-08-03T00:12:02.214Z,98587.28
2018-08-03T00:14:35.023Z,98579.31
2018-08-03T00:17:09.592Z,98579.12
2018-08-03T00:19:40.151Z,98580.63
2018-08-03T00:22:13.138Z,98581.42
2018-08-03T00:24:45.058Z,98580.27
2018-08-03T00:30:26.490Z,98574.89
2018-08-03T00:32:57.003Z,98575.15
2018-08-03T00:35:28.014Z,98574.78
2018-08-03T00:37:58.446Z,98572.91
2018-08-03T00:40:28.411Z,98572.77
2018-08-03T00:42:58.930Z,98574.41
2018-08-03T00:45:29.832Z,98572.89
2018-08-03T00:48:00.098Z,98566.51
2018-08-03T00:50:31.815Z,98563.98
2018-08-03T00:53:03.258Z,98564.15
2018-08-03T00:55:33.638Z,98563.98
2018-08-03T00:58:04.326Z,98567.22
2018-08-03T01:00:36.620Z,98565.97
2018-08-03T01:03:43.996Z,98572.98
2018-08-03T01:06:15.304Z,98566.95
2018-08-03T01:08:45.945Z,98567.55
2018-08-03T01:11:18.219Z,98567.05
2018-08-03T01:13:48.235Z,98565.20
2018-08-03T01:16:26.533Z,98567.55
2018-08-03T01:19:26.459Z,98573.11
2018-08-03T01:21:58.591Z,98575.83
2018-08-03T01:24:29.161Z,98576.34
2018-08-03T01:26:59.430Z,98579.49
2018-08-03T01:29:33.563Z,98580.34
2018-08-03T01:32:07.965Z,98577.86
2018-08-03T01:34:42.761Z,98581.98
2018-08-03T01:37:13.232Z,98577.89
2018-08-03T01:39:44.061Z,98574.47
2018-08-03T01:42:14.336Z,98575.72
2018-08-03T01:44:45.097Z,98575.17
2018-08-03T01:49:56.192Z,98568.77
2018-08-03T01:52:26.488Z,98564.03
2018-08-03T01:54:59.897Z,98557.66
2018-08-03T01:57:31.224Z,98561.29
2018-08-03T02:00:01.983Z,98565.02
2018-08-03T02:02:32.262Z,98566.36
2018-08-03T02:05:06.836Z,98563.47
2018-08-03T02:07:37.647Z,98562.24
2018-08-03T02:10:07.865Z,98557.31
2018-08-03T02:12:38.499Z,98561.14
2018-08-03T02:18:04.029Z,98555.02
2018-08-03T02:20:34.273Z,98560.11
2018-08-03T02:23:04.474Z,98550.96
2018-08-03T02:25:35.624Z,98556.73
2018-08-03T02:28:05.959Z,98548.21
2018-08-03T02:30:36.593Z,98553.56
2018-08-03T02:33:06.929Z,98555.34
2018-08-03T02:35:37.120Z,98554.66
2018-08-03T02:38:08.016Z,98553.56
2018-08-03T02:40:38.191Z,98559.10
2018-08-03T02:43:10.711Z,98554.59
2018-08-03T02:45:40.967Z,98554.27
2018-08-03T02:48:12.503Z,98554.76
2018-08-03T02:50:43.795Z,98558.06
2018-08-03T02:53:16.178Z,98549.86
2018-08-03T02:55:46.492Z,98556.31
2018-08-03T02:58:17.024Z,98552.78
2018-08-03T03:00:47.109Z,98552.16
2018-08-03T03:03:19.544Z,98548.98
2018-08-03T03:05:49.840Z,98552.97
2018-08-03T03:08:20.125Z,98546.03
2018-08-03T03:10:50.192Z,98558.67
2018-08-03T03:13:23.954Z,98559.71
2018-08-03T03:15:54.053Z,98559.25
2018-08-03T03:18:24.334Z,98552.70
2018-08-03T03:20:55.149Z,98559.75
2018-08-03T03:26:20.906Z,98558.86
2018-08-03T03:31:44.850Z,98559.98
2018-08-03T03:34:17.024Z,98559.56
2018-08-03T03:36:47.472Z,98558.88
2018-08-03T03:39:17.784Z,98563.31
2018-08-03T03:41:47.891Z,98561.22
2018-08-03T03:44:41.074Z,98558.28
2018-08-03T03:47:12.705Z,98558.05
2018-08-03T03:49:45.220Z,98559.17
2018-08-03T03:52:23.290Z,98566.30
2018-08-03T03:54:54.597Z,98565.97
2018-08-03T03:57:25.709Z,98565.73
2018-08-03T03:59:58.613Z,98561.46
2018-08-03T04:02:28.953Z,98557.95
2018-08-03T04:09:41.444Z,98567.81
2018-08-03T04:12:11.620Z,98564.63
2018-08-03T04:14:42.237Z,98569.23
2018-08-03T04:17:12.682Z,98566.29
2018-08-03T04:19:43.293Z,98566.58
2018-08-03T04:22:21.302Z,98573.97
2018-08-03T04:24:55.092Z,98571.12
2018-08-03T04:27:40.766Z,98573.89
2018-08-03T04:30:10.989Z,98573.76
2018-08-03T04:32:41.137Z,98574.08
2018-08-03T04:35:12.964Z,98575.37
2018-08-03T04:37:44.058Z,98578.64
2018-08-03T04:40:14.743Z,98563.14
2018-08-03T04:42:45.184Z,98573.84
2018-08-03T04:45:18.080Z,98579.64
2018-08-03T04:47:48.930Z,98577.19
2018-08-03T04:50:45.132Z,98583.09
2018-08-03T04:53:21.813Z,98582.81
2018-08-03T04:55:55.502Z,98586.02
2018-08-03T04:58:30.084Z,98588.12
2018-08-03T05:01:03.104Z,98591.20
2018-08-03T05:03:42.896Z,98596.23
2018-08-03T05:06:16.976Z,98596.27
2018-08-03T05:08:50.111Z,98595.28
2018-08-03T05:11:34.156Z,98596.22
2018-08-03T05:14:45.233Z,98591.87
2018-08-03T05:17:19.717Z,98594.63
2018-08-03T05:19:52.406Z,98596.94
2018-08-03T05:28:06.000Z,98468.63
2018-08-03T05:30:49.259Z,98608.81
2018-08-03T05:33:29.294Z,98601.70
2018-08-03T05:36:04.180Z,98605.91
2018-08-03T05:38:44.271Z,98605.45
2018-08-03T05:41:20.316Z,98604.69
2018-08-03T05:46:41.852Z,98603.55
2018-08-03T05:49:14.095Z,98603.64
2018-08-03T05:51:47.217Z,98608.06
2018-08-03T05:54:17.668Z,98607.64
2018-08-03T05:56:48.024Z,98614.55
2018-08-03T05:59:20.204Z,98619.31
2018-08-03T06:01:51.084Z,98618.08
2018-08-03T06:04:22.085Z,98615.16
2018-08-03T06:06:52.428Z,98618.91
2018-08-03T06:09:22.420Z,98615.38
2018-08-03T06:11:53.179Z,98622.27
2018-08-03T06:14:24.810Z,98622.52
2018-08-03T06:16:55.619Z,98627.25
2018-08-03T06:19:43.290Z,98620.61
2018-08-03T06:22:13.827Z,98622.84
2018-08-03T06:24:43.924Z,98611.91
2018-08-03T06:27:21.564Z,98615.31
2018-08-03T06:29:52.775Z,98622.53
2018-08-03T06:32:33.659Z,98626.56
2018-08-03T06:35:05.133Z,98621.59
2018-08-03T06:42:59.553Z,98621.26
2018-08-03T06:45:31.075Z,98618.25
2018-08-03T06:48:02.398Z,98613.06
2018-08-03T06:50:41.105Z,98619.58
2018-08-03T06:53:21.342Z,98619.89
2018-08-03T06:55:55.930Z,98620.82
2018-08-03T06:58:35.678Z,98624.10
2018-08-03T07:01:19.720Z,98573.83
2018-08-03T07:03:57.609Z,98626.02
2018-08-03T07:06:35.369Z,98618.41
2018-08-03T07:09:21.149Z,98621.57
2018-08-03T07:12:02.902Z,98626.47
2018-08-03T07:14:35.792Z,98622.94
2018-08-03T07:17:17.044Z,98625.64
2018-08-03T07:19:53.962Z,98620.05
2018-08-03T07:22:29.421Z,98621.63
2018-08-03T07:25:04.037Z,98616.42
2018-08-03T07:27:45.613Z,98621.56
2018-08-03T07:30:28.496Z,98621.23
2018-08-03T07:35:50.911Z,98628.20
2018-08-03T07:38:29.369Z,98629.14
2018-08-03T07:43:52.701Z,98624.50
2018-08-03T07:46:28.368Z,98626.55
2018-08-03T07:49:07.568Z,98628.84
2018-08-03T07:54:36.032Z,98628.83
2018-08-03T07:59:56.494Z,98633.16
2018-08-03T08:02:41.159Z,98626.76
2018-08-03T08:05:16.368Z,98627.83
2018-08-03T08:07:46.584Z,98632.76
2018-08-03T08:10:42.250Z,98624.91
2018-08-03T08:13:20.966Z,98624.55
2018-08-03T08:16:07.968Z,98617.45
2018-08-03T08:18:44.206Z,98620.87
2018-08-03T08:21:15.396Z,98620.31
2018-08-03T08:23:53.232Z,98613.47
2018-08-03T08:26:33.221Z,98618.64
2018-08-03T08:29:18.919Z,98616.50
2018-08-03T08:41:38.569Z,98632.60
2018-08-03T08:46:57.393Z,98627.77
2018-08-03T08:55:44.408Z,98593.33
2018-08-03T08:58:30.676Z,98629.85
2018-08-03T09:01:15.167Z,98631.91
2018-08-03T09:04:03.209Z,98630.26
2018-08-03T09:06:57.531Z,98635.13
2018-08-03T09:09:29.938Z,98637.84
2018-08-03T09:12:02.933Z,98638.13
2018-08-03T09:14:43.290Z,98638.46
2018-08-03T09:20:27.524Z,98630.70
2018-08-03T09:23:05.643Z,98631.09
2018-08-03T09:34:38.996Z,98621.78
2018-08-03T09:37:15.980Z,98619.75
2018-08-03T09:45:58.369Z,98617.30
2018-08-03T09:51:31.256Z,98619.23
2018-08-03T09:54:01.726Z,98621.28
2018-08-03T09:56:40.510Z,98623.45
2018-08-03T09:59:31.376Z,98613.69
2018-08-03T10:02:02.032Z,98611.31
2018-08-03T10:04:42.304Z,98606.85
2018-08-03T10:10:07.161Z,98599.34
2018-08-03T10:12:41.409Z,98605.44
2018-08-03T10:15:23.598Z,98601.70
2018-08-03T10:20:56.508Z,98591.45
2018-08-03T10:23:29.146Z,98576.59
2018-08-03T10:25:59.664Z,98571.30
2018-08-03T10:28:29.745Z,98567.17
2018-08-03T10:31:00.506Z,98570.91
2018-08-03T10:33:34.722Z,98573.47
2018-08-03T10:36:14.528Z,98573.36
2018-08-03T10:38:48.520Z,98566.52
2018-08-03T10:41:24.014Z,98560.14
2018-08-03T10:43:56.477Z,98555.57
2018-08-03T10:46:26.496Z,98554.45
2018-08-03T10:48:56.576Z,98557.69
2018-08-03T10:51:44.236Z,98545.48
2018-08-03T10:54:18.277Z,98547.86
2018-08-03T10:56:58.005Z,98547.00
2018-08-03T10:59:28.233Z,98536.55
2018-08-03T11:01:59.026Z,98534.31
2018-08-03T11:04:29.957Z,98527.73
2018-08-03T11:07:00.686Z,98524.80
2018-08-03T11:09:38.318Z,98518.84
2018-08-03T11:12:20.786Z,98518.38
2018-08-03T11:15:01.611Z,98520.56
2018-08-03T11:20:27.331Z,98519.77
2018-08-03T11:23:03.735Z,98517.20
2018-08-03T11:25:41.869Z,98509.03
2018-08-03T11:28:53.316Z,98508.53
2018-08-03T11:31:35.876Z,98513.30
2018-08-03T11:34:18.017Z,98505.47
2018-08-03T11:36:48.662Z,98500.59
2018-08-03T11:39:21.424Z,98493.70
2018-08-03T11:41:51.505Z,98493.45
2018-08-03T11:44:31.419Z,98484.37
2018-08-03T11:47:18.587Z,98488.36
2018-08-03T11:52:41.842Z,98485.02
2018-08-03T11:55:13.409Z,98480.86
2018-08-03T11:57:45.919Z,98487.62
2018-08-03T12:09:57.715Z,98461.47
2018-08-03T12:12:29.171Z,98463.33
2018-08-03T12:15:01.218Z,98457.84
2018-08-03T12:20:50.925Z,98453.12
2018-08-03T12:23:33.291Z,98445.92
2018-08-03T12:26:11.643Z,98448.99
2018-08-03T12:28:53.536Z,98442.29
2018-08-03T12:31:38.270Z,98445.42
2018-08-03T12:34:16.570Z,98443.61
2018-08-03T12:36:57.396Z,98440.53
2018-08-03T12:39:27.336Z,98435.92
2018-08-03T12:42:00.082Z,98435.98
2018-08-03T12:44:30.693Z,98437.84
2018-08-03T12:47:03.491Z,98433.08
2018-08-03T12:49:34.322Z,98424.96
2018-08-03T12:52:06.892Z,98431.20
2018-08-03T12:54:45.742Z,98426.37
2018-08-03T12:57:19.680Z,98422.87
2018-08-03T12:59:51.483Z,98431.70
2018-08-03T13:02:25.992Z,98425.23
2018-08-03T13:05:00.011Z,98423.17
2018-08-03T13:07:31.107Z,98422.17
2018-08-03T13:10:02.936Z,98424.05
2018-08-03T13:13:03.372Z,98416.91
2018-08-03T13:15:36.122Z,98413.91
2018-08-03T13:18:19.387Z,98410.72
2018-08-03T13:20:52.865Z,98412.54
2018-08-03T13:23:24.445Z,98408.81
2018-08-03T13:28:59.020Z,98421.19
2018-08-03T13:31:36.949Z,98423.97
2018-08-03T13:34:17.804Z,98418.03
2018-08-03T13:36:59.726Z,98420.36
2018-08-03T13:39:44.473Z,98408.86
2018-08-03T13:42:20.128Z,98397.05
2018-08-03T13:44:57.794Z,98390.30
2018-08-03T13:47:28.460Z,98386.41
2018-08-03T13:50:08.145Z,98389.06
2018-08-03T13:52:50.680Z,98403.61
2018-08-03T13:55:28.975Z,98415.05
2018-08-03T13:58:06.441Z,98404.85
2018-08-03T14:03:52.189Z,98406.42
2018-08-03T14:06:39.444Z,98402.94
2018-08-03T14:09:30.339Z,98395.77
2018-08-03T14:15:29.583Z,98391.89
2018-08-03T14:18:02.211Z,98394.54
2018-08-03T14:20:32.378Z,98388.23
2018-08-03T14:23:16.393Z,98393.59
2018-08-03T14:25:49.924Z,98398.51
2018-08-03T14:28:23.420Z,98383.13
2018-08-03T14:31:01.803Z,98379.97
2018-08-03T14:33:42.781Z,98378.77
2018-08-03T14:36:20.684Z,98380.64
2018-08-03T14:39:13.360Z,98375.13
2018-08-03T14:44:30.905Z,98369.20
2018-08-03T14:53:02.980Z,98252.11
2018-08-03T14:58:36.073Z,98355.06
2018-08-03T15:04:27.862Z,98355.27
2018-08-03T15:07:01.933Z,98352.09
2018-08-03T15:18:35.090Z,98328.14
2018-08-03T15:21:16.514Z,98326.52
2018-08-03T15:24:04.735Z,98320.62
2018-08-03T15:27:02.618Z,98311.75
2018-08-03T15:41:12.766Z,98316.59
2018-08-03T15:43:50.630Z,98309.55
2018-08-03T15:49:37.230Z,98310.84
2018-08-03T15:52:27.422Z,98310.93
2018-08-03T15:57:48.064Z,98289.25
2018-08-03T16:00:25.303Z,98292.02
2018-08-03T16:08:54.198Z,98262.08
2018-08-03T16:20:30.672Z,98245.99
2018-08-03T16:23:24.764Z,98248.13
2018-08-03T16:29:21.096Z,98244.20
2018-08-03T16:43:52.305Z,98226.70
2018-08-03T16:46:40.152Z,98233.05
2018-08-03T16:49:28.184Z,98224.65
2018-08-03T16:52:02.834Z,98229.77
2018-08-03T16:54:37.462Z,98228.52
2018-08-03T16:57:12.278Z,98225.05
2018-08-03T16:59:42.828Z,98224.16
2018-08-03T17:02:13.737Z,98217.86
2018-08-03T17:04:45.717Z,98215.07
2018-08-03T17:07:20.451Z,98218.95
2018-08-03T17:09:50.454Z,98214.70
2018-08-03T17:12:25.391Z,98217.66
2018-08-03T17:14:58.224Z,98217.77
2018-08-03T17:17:29.210Z,98212.14
2018-08-03T17:19:59.740Z,98210.74
2018-08-03T17:22:31.361Z,98205.92
2018-08-03T17:25:01.519Z,98201.87
2018-08-03T17:27:34.865Z,98201.31
2018-08-03T17:30:05.954Z,98197.33
2018-08-03T17:32:36.613Z,98206.62
2018-08-03T17:35:06.533Z,98206.64
2018-08-03T17:37:37.142Z,98206.56
2018-08-03T17:40:07.733Z,98204.06
2018-08-03T17:42:38.209Z,98203.27
2018-08-03T17:45:08.285Z,98200.30
2018-08-03T17:47:39.458Z,98197.53
2018-08-03T17:50:09.486Z,98196.70
2018-08-03T17:52:39.456Z,98194.39
2018-08-03T17:55:09.411Z,98194.77
2018-08-03T17:57:40.539Z,98196.02
2018-08-03T18:00:10.539Z,98200.17
2018-08-03T18:02:40.351Z,98202.39
2018-08-03T18:05:10.440Z,98202.19
2018-08-03T18:09:23.559Z,98206.47
2018-08-03T18:11:53.580Z,98201.15
2018-08-03T18:14:23.683Z,98205.16
2018-08-03T18:16:54.616Z,98215.39
2018-08-03T18:19:25.262Z,98212.61
2018-08-03T18:21:55.392Z,98217.06
2018-08-03T18:24:25.305Z,98213.22
2018-08-03T18:26:57.387Z,98213.69
2018-08-03T18:29:28.291Z,98213.39
2018-08-03T18:32:01.503Z,98217.21
2018-08-03T18:34:40.732Z,98216.92
2018-08-03T18:37:11.277Z,98217.55
2018-08-03T18:39:41.557Z,98224.06
2018-08-03T18:42:11.715Z,98218.29
2018-08-03T18:44:43.995Z,98216.57
2018-08-03T18:47:15.904Z,98220.98
2018-08-03T18:49:46.225Z,98224.74
2018-08-03T18:52:16.581Z,98227.05
2018-08-03T18:54:49.963Z,98228.73
2018-08-03T18:57:20.498Z,98229.62
2018-08-03T18:59:51.628Z,98232.64
2018-08-03T19:02:23.020Z,98232.83
2018-08-03T19:04:53.498Z,98237.19
2018-08-03T19:07:23.624Z,98238.74
2018-08-03T19:10:00.670Z,98241.43
2018-08-03T19:12:30.923Z,98242.63
2018-08-03T19:15:01.962Z,98240.42
2018-08-03T19:17:32.090Z,98246.63
2018-08-03T19:20:02.515Z,98243.59
2018-08-03T19:22:32.979Z,98248.30
2018-08-03T19:25:03.468Z,98247.95
2018-08-03T19:27:33.385Z,98256.79
2018-08-03T19:30:03.405Z,98257.19
2018-08-03T19:32:34.671Z,98257.94
2018-08-03T19:35:04.901Z,98260.14
2018-08-03T19:37:35.009Z,98259.98
2018-08-03T19:40:05.450Z,98266.87
2018-08-03T19:42:35.453Z,98266.93
2018-08-03T19:45:05.808Z,98265.92
2018-08-03T19:47:36.039Z,98263.52
2018-08-03T19:50:06.352Z,98268.72
2018-08-03T19:52:36.481Z,98261.20
2018-08-03T19:55:06.995Z,98263.94
2018-08-03T19:57:38.397Z,98264.95
2018-08-03T20:00:10.927Z,98263.43
2018-08-03T20:02:41.526Z,98268.77
2018-08-03T20:05:11.893Z,98268.20
2018-08-03T20:07:42.260Z,98272.40
2018-08-03T20:10:12.231Z,98273.84
2018-08-03T20:12:42.783Z,98275.62
2018-08-03T20:15:13.189Z,98273.07
2018-08-03T20:17:43.389Z,98277.18
2018-08-03T20:20:13.426Z,98272.29
2018-08-03T20:22:43.648Z,98273.33
2018-08-03T20:25:16.025Z,98265.33
2018-08-03T20:27:45.913Z,98269.15
2018-08-03T20:30:16.056Z,98269.48
2018-08-03T20:32:45.962Z,98274.26
2018-08-03T20:35:16.299Z,98270.41
2018-08-03T20:37:46.254Z,98267.25
2018-08-03T20:40:16.278Z,98269.69
2018-08-03T20:42:46.326Z,98272.94
2018-08-03T20:45:16.557Z,98273.69
2018-08-03T20:47:46.456Z,98275.44
2018-08-03T20:50:16.504Z,98275.06
2018-08-03T20:52:46.936Z,98275.03
2018-08-03T20:55:17.924Z,98266.83
2018-08-03T20:57:49.244Z,98270.55
2018-08-03T21:00:20.642Z,98274.86
2018-08-03T21:02:52.239Z,98278.91
2018-08-03T21:05:22.429Z,98275.96
2018-08-03T21:07:52.663Z,98275.85
2018-08-03T21:10:27.568Z,98276.28
2018-08-03T21:12:57.585Z,98280.81
2018-08-03T21:15:27.503Z,98273.98
2018-08-03T21:17:58.642Z,98271.20
2018-08-03T21:20:28.539Z,98268.22
2018-08-03T21:22:58.463Z,98270.22
2018-08-03T21:25:28.327Z,98269.96
2018-08-03T21:27:58.451Z,98269.80
2018-08-03T21:30:28.267Z,98268.18
2018-08-03T21:32:58.444Z,98267.42
2018-08-03T21:35:28.430Z,98268.08
2018-08-03T21:37:59.318Z,98264.96
2018-08-03T21:40:30.139Z,98265.30
2018-08-03T21:43:00.437Z,98260.86
2018-08-03T21:45:35.375Z,98267.55
2018-08-03T21:48:05.384Z,98258.72
2018-08-03T21:50:35.393Z,98264.62
2018-08-03T21:53:06.236Z,98256.95
2018-08-03T21:55:36.441Z,98251.81
2018-08-03T21:58:06.397Z,98262.22
2018-08-03T22:00:36.425Z,98260.04
2018-08-03T22:03:07.588Z,98255.69
2018-08-03T22:05:37.490Z,98262.45
2018-08-03T22:08:08.442Z,98255.81
2018-08-03T22:10:39.062Z,98257.64
2018-08-03T22:13:09.762Z,98260.52
2018-08-03T22:15:41.090Z,98258.70
2018-08-03T22:18:13.716Z,98261.38
2018-08-03T22:20:44.074Z,98265.39
2018-08-03T22:23:14.008Z,98263.76
2018-08-03T22:25:44.625Z,98264.26
2018-08-03T22:28:20.606Z,98261.09
2018-08-03T22:30:51.147Z,98260.79
2018-08-03T22:33:21.454Z,98259.46
2018-08-03T22:35:51.796Z,98263.80
2018-08-03T22:38:21.886Z,98264.64
2018-08-03T22:40:52.623Z,98264.45
2018-08-03T22:43:23.150Z,98264.98
2018-08-03T22:45:53.070Z,98263.65
2018-08-03T22:48:24.321Z,98267.66
2018-08-03T22:50:54.194Z,98265.14
2018-08-03T22:53:24.161Z,98260.78
2018-08-03T22:55:54.159Z,98259.95
2018-08-03T22:58:24.406Z,98259.46
2018-08-03T23:00:56.316Z,98258.66
2018-08-03T23:03:26.238Z,98260.83
2018-08-03T23:05:56.848Z,98261.67
2018-08-03T23:08:26.815Z,98268.01
2018-08-03T23:10:56.744Z,98262.02
2018-08-03T23:13:28.613Z,98259.20
2018-08-03T23:15:58.532Z,98253.55
2018-08-03T23:18:28.747Z,98257.36
2018-08-03T23:20:58.616Z,98256.68
2018-08-03T23:23:28.671Z,98257.20
2018-08-03T23:25:58.688Z,98255.23
2018-08-03T23:28:29.971Z,98254.42
2018-08-03T23:30:59.953Z,98260.09
2018-08-03T23:33:29.849Z,98254.11
2018-08-03T23:35:59.695Z,98255.44
2018-08-03T23:38:29.949Z,98252.77
2018-08-03T23:40:59.858Z,98249.95
2018-08-03T23:43:29.723Z,98253.80
2018-08-03T23:45:59.614Z,98252.27
2018-08-03T23:48:37.045Z,98249.78
2018-08-03T23:51:06.896Z,98247.30
2018-08-03T23:53:37.137Z,98253.78
2018-08-03T23:56:07.200Z,98249.45
2018-08-03T23:58:39.765Z,98246.79
